Time;durP1;ratioP1;P1;durP2;ratioP2;P2;SDS_P1;SDS_P2;PMS_P1;PMS_P2;Temp;Humidity;BMP_temperature;BMP_pressure;BME280_temperature;BME280_humidity;BME280_pressure;Samples;Min_cycle;Max_cycle;Signal;HPM_P1;HPM_P2
2021/12/14 00:01:39;;;;;;;17.45;9.27;;;;;;;;;;4991764;28;20069;-76
2021/12/14 00:04:08;;;;;;;16.77;9.95;;;;;;;;;;4974177;28;20256;-76
2021/12/14 00:06:34;;;;;;;12.52;7.05;;;;;;;;;;5007696;28;20319;-76
2021/12/14 00:09:02;;;;;;;11.88;7.43;;;;;;;;;;4995107;28;20038;-76
2021/12/14 00:16:45;;;;;;;11.55;7.65;;;;;;;;;;4996608;28;19917;-76
2021/12/14 00:19:12;;;;;;;17.20;9.32;;;;;;;;;;4991558;28;20136;-76
2021/12/14 00:21:42;;;;;;;17.05;7.80;;;;;;;;;;4981362;28;20031;-76
2021/12/14 00:24:11;;;;;;;16.02;9.68;;;;;;;;;;4990823;28;20283;-76
2021/12/14 00:26:45;;;;;;;15.43;9.30;;;;;;;;;;4995127;28;20042;-77
2021/12/14 00:29:17;;;;;;;16.38;10.15;;;;;;;;;;4986959;28;20137;-76
2021/12/14 00:31:43;;;;;;;12.68;7.90;;;;;;;;;;4995941;28;20265;-76
2021/12/14 00:34:09;;;;;;;11.95;7.50;;;;;;;;;;4994582;28;20106;-76
2021/12/14 00:36:37;;;;;;;13.85;7.85;;;8.00;99.90;;;;;;4996848;28;20113;-76
2021/12/14 00:39:06;;;;;;;22.10;10.02;;;;;;;;;;4995608;28;20034;-76
2021/12/14 00:41:34;;;;;;;11.65;7.82;;;;;;;;;;5009303;28;20030;-76
2021/12/14 00:44:00;;;;;;;12.77;8.05;;;;;;;;;;4978980;28;20038;-76
2021/12/14 00:46:26;;;;;;;14.40;7.70;;;;;;;;;;4993223;28;20090;-76
2021/12/14 00:48:53;;;;;;;12.38;7.47;;;;;;;;;;4976318;28;20053;-76
2021/12/14 00:51:22;;;;;;;13.25;7.60;;;;;;;;;;4994948;28;20048;-76
2021/12/14 00:53:49;;;;;;;13.00;7.80;;;;;;;;;;4994375;28;20149;-76
2021/12/14 00:56:15;;;;;;;14.23;8.82;;;;;;;;;;4978999;28;20038;-76
2021/12/14 00:58:42;;;;;;;13.68;8.68;;;;;;;;;;4993852;28;20264;-76
2021/12/14 01:01:10;;;;;;;14.05;8.85;;;;;;;;;;4994967;28;20118;-76
2021/12/14 01:03:39;;;;;;;15.57;9.02;;;7.90;99.90;;;;;;4998107;28;20030;-76
2021/12/14 01:06:10;;;;;;;20.73;11.75;;;;;;;;;;4978452;28;20094;-76
2021/12/14 01:08:39;;;;;;;16.45;8.68;;;;;;;;;;4994573;28;20028;-76
2021/12/14 01:11:13;;;;;;;18.58;9.10;;;;;;;;;;4999820;28;20035;-76
2021/12/14 01:13:48;;;;;;;15.93;9.38;;;8.00;99.90;;;;;;5003503;28;20112;-76
2021/12/14 01:16:33;;;;;;;14.10;8.75;;;;;;;;;;4976888;28;20188;-76
2021/12/14 01:19:12;;;;;;;17.67;10.98;;;;;;;;;;4999037;28;20237;-76
2021/12/14 01:22:12;;;;;;;13.60;7.82;;;;;;;;;;4979755;28;20042;-75
2021/12/14 01:27:30;;;;;;;15.85;8.90;;;;;;;;;;4999153;28;20080;-75
2021/12/14 01:29:57;;;;;;;17.13;9.32;;;;;;;;;;4993507;28;20086;-75
2021/12/14 01:32:27;;;;;;;16.63;10.68;;;;;;;;;;4987635;28;20035;-75
2021/12/14 01:34:53;;;;;;;19.70;11.50;;;7.80;99.90;;;;;;4984377;28;20554;-75
2021/12/14 01:37:24;;;;;;;12.27;7.13;;;;;;;;;;4978850;28;20376;-76
2021/12/14 01:40:17;;;;;;;18.73;10.68;;;;;;;;;;4998108;28;20211;-76
2021/12/14 01:42:43;;;;;;;18.52;10.10;;;;;;;;;;4976216;28;20061;-75
2021/12/14 01:45:13;;;;;;;17.85;11.55;;;;;;;;;;4990908;28;20181;-75
2021/12/14 01:47:41;;;;;;;19.65;13.25;;;;;;;;;;4996949;28;20023;-75
2021/12/14 01:50:11;;;;;;;17.02;10.02;;;;;;;;;;4990874;28;20053;-75
2021/12/14 01:52:38;;;;;;;18.00;10.57;;;;;;;;;;4992292;28;20035;-75
2021/12/14 01:55:12;;;;;;;15.10;9.43;;;;;;;;;;4994332;28;20038;-75
2021/12/14 01:57:39;;;;;;;19.45;10.77;;;;;;;;;;4975239;28;20033;-75
2021/12/14 02:00:08;;;;;;;17.88;11.63;;;;;;;;;;5001005;28;20286;-75
2021/12/14 02:02:41;;;;;;;17.67;11.60;;;;;;;;;;4998671;28;20050;-76
2021/12/14 02:05:15;;;;;;;16.98;11.48;;;;;;;;;;4979664;28;20058;-75
2021/12/14 02:07:41;;;;;;;14.18;8.55;;;;;;;;;;4995444;28;20039;-78
2021/12/14 02:10:15;;;;;;;21.70;12.80;;;8.00;99.90;;;;;;4997990;28;20042;-78
2021/12/14 02:12:43;;;;;;;18.05;11.65;;;7.90;99.90;;;;;;4997194;28;20041;-78
2021/12/14 02:15:15;;;;;;;21.40;11.85;;;;;;;;;;4999533;28;20129;-78
2021/12/14 02:17:41;;;;;;;16.58;10.18;;;;;;;;;;4982930;28;20045;-78
2021/12/14 02:20:09;;;;;;;17.92;10.45;;;;;;;;;;4996833;28;20313;-78
2021/12/14 02:22:36;;;;;;;18.83;12.60;;;7.90;99.90;;;;;;4999006;28;20049;-78
2021/12/14 02:25:03;;;;;;;22.55;11.93;;;;;;;;;;4999174;28;20141;-78
2021/12/14 02:27:42;;;;;;;18.88;10.65;;;7.80;99.90;;;;;;4997444;28;20042;-78
2021/12/14 02:30:11;;;;;;;16.20;10.13;;;;;;;;;;4999745;28;20271;-78
2021/12/14 02:32:38;;;;;;;21.40;10.43;;;;;;;;;;5003703;28;20148;-75
2021/12/14 02:35:06;;;;;;;21.20;11.73;;;;;;;;;;4999581;28;20189;-75
2021/12/14 02:37:38;;;;;;;17.95;10.38;;;;;;;;;;5005593;28;20041;-75
2021/12/14 02:40:14;;;;;;;18.75;9.82;;;;;;;;;;4982387;28;20043;-75
2021/12/14 02:42:41;;;;;;;19.05;10.63;;;;;;;;;;4985938;28;20050;-75
2021/12/14 02:45:07;;;;;;;18.38;9.85;;;;;;;;;;4983828;28;20045;-75
2021/12/14 02:47:34;;;;;;;21.02;12.13;;;;;;;;;;4982043;28;20054;-75
2021/12/14 02:50:00;;;;;;;17.55;9.77;;;;;;;;;;4981576;28;20145;-75
2021/12/14 02:52:37;;;;;;;15.95;10.18;;;;;;;;;;4982489;28;20033;-75
2021/12/14 02:55:07;;;;;;;25.38;13.23;;;;;;;;;;4998732;28;20018;-76
2021/12/14 02:57:36;;;;;;;22.33;12.45;;;;;;;;;;4997381;28;20041;-75
2021/12/14 03:00:04;;;;;;;20.30;12.07;;;;;;;;;;4997684;28;20145;-75
2021/12/14 03:02:32;;;;;;;22.13;11.80;;;;;;;;;;5000375;28;20069;-75
2021/12/14 03:05:01;;;;;;;13.57;8.27;;;;;;;;;;4997276;28;20069;-75
2021/12/14 03:07:33;;;;;;;17.50;10.80;;;;;;;;;;4997576;28;20030;-75
2021/12/14 03:10:21;;;;;;;16.85;9.73;;;8.10;99.90;;;;;;4995207;28;20030;-79
2021/12/14 03:12:49;;;;;;;21.55;11.98;;;;;;;;;;4999304;28;20161;-78
2021/12/14 03:15:18;;;;;;;18.42;10.38;;;;;;;;;;4991628;28;20286;-78
2021/12/14 03:17:44;;;;;;;22.27;14.20;;;;;;;;;;4992880;28;20050;-78
2021/12/14 03:20:22;;;;;;;20.35;12.05;;;7.80;99.90;;;;;;4989782;28;20105;-78
2021/12/14 03:22:51;;;;;;;18.77;10.88;;;;;;;;;;4996287;28;20065;-78
2021/12/14 03:25:19;;;;;;;31.42;16.02;;;;;;;;;;5010657;28;20026;-79
2021/12/14 03:27:45;;;;;;;26.75;12.93;;;;;;;;;;4992647;28;20307;-76
2021/12/14 03:30:32;;;;;;;22.25;11.98;;;;;;;;;;4994910;28;20029;-76
2021/12/14 03:33:01;;;;;;;23.02;11.68;;;;;;;;;;4999203;28;20026;-76
2021/12/14 03:35:40;;;;;;;21.27;12.27;;;;;;;;;;4981694;28;20057;-76
2021/12/14 03:38:11;;;;;;;30.25;16.27;;;7.60;99.90;;;;;;4990816;28;20159;-76
2021/12/14 03:40:37;;;;;;;21.40;9.57;;;;;;;;;;4994158;28;20097;-77
2021/12/14 03:43:03;;;;;;;22.15;12.70;;;;;;;;;;4978781;28;20248;-76
2021/12/14 03:45:30;;;;;;;29.45;16.65;;;;;;;;;;4978532;28;20046;-76
2021/12/14 03:47:58;;;;;;;32.72;16.05;;;7.70;99.90;;;;;;4997158;28;20034;-76
2021/12/14 03:50:36;;;;;;;23.95;11.98;;;7.70;99.90;;;;;;4999192;28;20038;-76
2021/12/14 03:53:03;;;;;;;22.27;12.70;;;;;;;;;;4995302;28;20041;-76
2021/12/14 03:55:32;;;;;;;25.13;12.70;;;;;;;;;;4991481;28;20261;-76
2021/12/14 03:57:58;;;;;;;20.70;11.90;;;;;;;;;;4994740;28;20049;-76
2021/12/14 04:00:27;;;;;;;21.92;11.88;;;;;;;;;;4996700;28;20034;-76
2021/12/14 04:02:54;;;;;;;30.27;14.80;;;;;;;;;;4996421;28;20026;-76
2021/12/14 04:05:21;;;;;;;22.83;13.98;;;;;;;;;;4996387;28;20188;-76
2021/12/14 04:07:47;;;;;;;24.48;14.18;;;;;;;;;;5005478;28;20048;-76
2021/12/14 04:10:17;;;;;;;23.17;15.02;;;;;;;;;;4999036;28;20030;-76
2021/12/14 04:12:43;;;;;;;20.85;12.55;;;;;;;;;;4992259;28;20094;-76
2021/12/14 04:15:10;;;;;;;28.45;14.30;;;;;;;;;;4995840;28;20038;-76
2021/12/14 04:17:36;;;;;;;21.98;11.48;;;;;;;;;;4980444;28;20046;-76
2021/12/14 04:20:09;;;;;;;26.85;13.18;;;;;;;;;;4993498;28;20429;-75
2021/12/14 04:22:35;;;;;;;26.33;12.93;;;;;;;;;;4995600;28;20255;-76
2021/12/14 04:25:04;;;;;;;37.92;17.25;;;;;;;;;;4997096;28;20074;-75
2021/12/14 04:27:31;;;;;;;28.52;14.75;;;;;;;;;;4998676;28;20029;-76
2021/12/14 04:29:59;;;;;;;42.20;19.25;;;;;;;;;;4989435;28;20026;-76
2021/12/14 04:32:25;;;;;;;32.17;13.20;;;;;;;;;;4983680;28;20030;-75
2021/12/14 04:34:55;;;;;;;41.63;20.45;;;;;;;;;;5003833;28;20053;-75
2021/12/14 04:37:21;;;;;;;27.77;13.73;;;;;;;;;;4980790;28;20034;-76
2021/12/14 04:40:11;;;;;;;24.27;13.73;;;;;;;;;;4999398;28;20063;-76
2021/12/14 04:51:57;;;;;;;22.10;12.38;;;;;;;;;;4994249;28;20945;-76
2021/12/14 04:54:01;;;;;;;29.80;17.27;;;;;;;;;;5000659;28;20038;-76
2021/12/14 04:56:32;;;;;;;20.92;12.50;;;;;;;;;;4996134;28;20184;-76
2021/12/14 04:59:10;;;;;;;21.65;12.63;;;;;;;;;;4988411;28;20050;-76
2021/12/14 05:01:40;;;;;;;28.00;17.63;;;;;;;;;;4995761;28;20046;-76
2021/12/14 05:04:09;;;;;;;24.23;15.27;;;;;;;;;;4998651;28;20156;-76
2021/12/14 05:06:51;;;;;;;29.33;17.23;;;7.60;99.90;;;;;;4993911;28;20042;-76
2021/12/14 05:09:23;;;;;;;20.20;12.15;;;;;;;;;;4981061;28;20038;-76
2021/12/14 05:12:05;;;;;;;34.42;16.77;;;7.80;99.90;;;;;;4993432;28;20045;-76
2021/12/14 05:14:34;;;;;;;27.20;13.10;;;;;;;;;;4997819;28;20162;-76
2021/12/14 05:17:03;;;;;;;30.48;14.65;;;;;;;;;;4979583;28;20043;-75
2021/12/14 05:19:31;;;;;;;39.20;19.90;;;;;;;;;;5007071;28;20305;-75
2021/12/14 05:22:11;;;;;;;31.55;15.75;;;7.80;99.90;;;;;;4996835;28;20100;-76
2021/12/14 05:24:38;;;;;;;26.80;14.13;;;;;;;;;;4999670;28;20163;-76
2021/12/14 05:27:05;;;;;;;43.80;20.48;;;;;;;;;;4996821;28;20029;-76
2021/12/14 05:29:32;;;;;;;27.00;14.48;;;7.70;99.90;;;;;;5002196;28;20089;-76
2021/12/14 05:32:00;;;;;;;36.60;16.40;;;;;;;;;;4990967;28;20287;-76
2021/12/14 05:34:28;;;;;;;29.58;15.95;;;7.80;99.90;;;;;;4999221;28;20029;-76
2021/12/14 05:36:55;;;;;;;27.55;14.35;;;;;;;;;;4997372;28;20072;-76
2021/12/14 05:44:35;;;;;;;42.03;18.13;;;;;;;;;;4996276;28;20026;-76
2021/12/14 05:47:04;;;;;;;37.03;16.50;;;;;;;;;;4996184;28;20236;-76
2021/12/14 05:49:31;;;;;;;21.20;11.10;;;;;;;;;;4984128;28;20037;-76
2021/12/14 05:51:59;;;;;;;41.10;17.95;;;;;;;;;;4991527;28;20232;-76
2021/12/14 05:54:27;;;;;;;59.60;22.13;;;;;;;;;;4983255;28;20027;-76
2021/12/14 05:56:54;;;;;;;19.70;10.25;;;;;;;;;;4994974;28;20026;-76
2021/12/14 05:59:21;;;;;;;23.13;11.20;;;;;;;;;;4998136;28;20085;-76
2021/12/14 06:01:48;;;;;;;36.95;14.30;;;;;;;;;;4998826;28;20274;-76
2021/12/14 06:04:15;;;;;;;79.88;29.08;;;;;;;;;;4992287;28;20183;-76
2021/12/14 06:06:52;;;;;;;41.58;17.17;;;;;;;;;;4982641;28;20227;-76
2021/12/14 06:09:20;;;;;;;24.85;11.25;;;;;;;;;;4990741;28;20287;-76
2021/12/14 06:11:47;;;;;;;33.22;13.85;;;;;;;;;;4994030;28;20018;-77
2021/12/14 06:14:19;;;;;;;16.88;8.77;;;;;;;;;;4998820;28;20309;-77
2021/12/14 06:16:47;;;;;;;55.35;20.98;;;;;;;;;;4991533;28;20252;-76
2021/12/14 06:19:19;;;;;;;34.92;12.88;;;;;;;;;;4985944;28;20188;-76
2021/12/14 06:21:46;;;;;;;32.25;13.10;;;;;;;;;;4996326;28;20031;-76
2021/12/14 06:24:12;;;;;;;45.85;17.65;;;;;;;;;;4992902;28;20050;-77
2021/12/14 06:26:44;;;;;;;45.55;16.85;;;;;;;;;;4993413;28;20244;-77
2021/12/14 06:29:12;;;;;;;61.05;20.23;;;;;;;;;;4982336;28;20106;-77
2021/12/14 06:31:40;;;;;;;47.90;17.02;;;;;;;;;;4996587;28;20084;-76
2021/12/14 06:34:14;;;;;;;27.40;11.13;;;;;;;;;;4989186;28;20042;-76
2021/12/14 06:36:51;;;;;;;36.58;14.45;;;;;;;;;;4996704;28;20271;-76
2021/12/14 06:39:18;;;;;;;56.95;21.15;;;;;;;;;;4990844;28;20030;-76
2021/12/14 06:41:44;;;;;;;32.10;12.77;;;;;;;;;;4999358;28;20034;-76
2021/12/14 06:44:11;;;;;;;33.33;13.20;;;;;;;;;;4996416;28;20440;-76
2021/12/14 06:46:40;;;;;;;22.00;9.45;;;8.10;99.90;;;;;;4994156;28;20309;-77
2021/12/14 06:49:12;;;;;;;42.90;18.00;;;8.10;99.90;;;;;;4996416;28;20030;-77
2021/12/14 06:51:46;;;;;;;40.03;16.70;;;8.00;99.90;;;;;;4978238;28;20185;-77
2021/12/14 06:54:19;;;;;;;51.88;18.65;;;8.20;99.90;;;;;;4995903;28;20027;-77
2021/12/14 06:56:56;;;;;;;26.75;10.65;;;;;;;;;;4996379;28;20252;-77
2021/12/14 06:59:22;;;;;;;55.30;16.90;;;;;;;;;;4991071;28;20210;-76
2021/12/14 07:02:00;;;;;;;32.38;12.15;;;;;;;;;;4997563;28;20027;-77
2021/12/14 07:04:34;;;;;;;53.42;21.38;;;;;;;;;;4994952;28;20080;-77
2021/12/14 07:07:04;;;;;;;37.83;14.82;;;8.10;99.90;;;;;;4977898;28;20049;-77
2021/12/14 07:09:36;;;;;;;71.35;24.75;;;;;;;;;;4991912;28;20221;-77
2021/12/14 07:12:22;;;;;;;41.42;15.82;;;;;;;;;;4997272;28;20171;-77
2021/12/14 07:14:54;;;;;;;46.22;16.55;;;;;;;;;;4996432;28;20033;-77
2021/12/14 07:17:27;;;;;;;47.45;18.75;;;;;;;;;;4997539;28;20060;-77
2021/12/14 07:19:53;;;;;;;66.03;23.23;;;;;;;;;;4996678;28;20054;-77
2021/12/14 07:22:23;;;;;;;73.72;24.73;;;;;;;;;;4996563;28;20046;-77
2021/12/14 07:25:01;;;;;;;67.53;22.52;;;8.20;99.90;;;;;;5007169;28;20051;-77
2021/12/14 07:27:31;;;;;;;49.47;16.33;;;;;;;;;;4993711;28;20157;-77
2021/12/14 07:30:16;;;;;;;67.75;23.30;;;;;;;;;;4986554;28;20035;-79
2021/12/14 07:32:47;;;;;;;38.35;14.77;;;;;;;;;;4994618;28;20037;-80
2021/12/14 07:35:26;;;;;;;49.17;15.88;;;;;;;;;;4996380;28;20049;-79
2021/12/14 07:37:53;;;;;;;27.35;9.20;;;;;;;;;;4981363;28;20077;-77
2021/12/14 07:40:19;;;;;;;64.13;22.40;;;;;;;;;;4986194;28;20093;-77
2021/12/14 07:42:46;;;;;;;53.00;17.90;;;;;;;;;;4992022;28;20030;-80
2021/12/14 07:45:24;;;;;;;56.63;19.13;;;7.60;99.90;;;;;;4997838;28;20283;-77
2021/12/14 07:47:54;;;;;;;76.03;21.80;;;;;;;;;;4991063;28;20201;-77
2021/12/14 07:50:20;;;;;;;50.78;16.98;;;;;;;;;;4987014;28;20050;-77
2021/12/14 07:52:46;;;;;;;74.10;22.27;;;;;;;;;;4973766;28;20109;-77
2021/12/14 07:55:13;;;;;;;77.65;24.10;;;;;;;;;;4987328;28;20244;-77
2021/12/14 07:57:39;;;;;;;81.25;27.00;;;;;;;;;;4980142;28;20133;-77
2021/12/14 08:00:20;;;;;;;52.22;16.73;;;;;;;;;;4993297;28;20050;-77
2021/12/14 08:02:48;;;;;;;50.95;18.92;;;;;;;;;;5006205;28;20050;-77
2021/12/14 08:05:17;;;;;;;27.08;10.55;;;8.40;99.90;;;;;;4991745;28;20026;-77
2021/12/14 08:07:45;;;;;;;18.60;7.50;;;;;;;;;;4997229;28;20256;-77
2021/12/14 08:10:16;;;;;;;38.17;14.55;;;;;;;;;;4993748;28;20042;-77
2021/12/14 08:12:56;;;;;;;22.70;10.80;;;8.20;99.90;;;;;;4987597;28;20070;-76
2021/12/14 08:15:22;;;;;;;77.60;24.20;;;;;;;;;;4995071;28;20061;-76
2021/12/14 08:18:03;;;;;;;53.65;18.85;;;;;;;;;;4987066;28;20054;-76
2021/12/14 08:20:29;;;;;;;23.55;10.27;;;;;;;;;;5009270;28;20031;-76
2021/12/14 08:22:57;;;;;;;88.05;27.85;;;;;;;;;;4995869;28;20038;-77
2021/12/14 08:25:26;;;;;;;40.70;13.55;;;;;;;;;;4997571;28;20106;-78
2021/12/14 08:28:05;;;;;;;68.43;21.65;;;;;;;;;;4988323;28;20252;-79
2021/12/14 08:30:33;;;;;;;97.53;28.90;;;;;;;;;;4993827;28;20097;-77
2021/12/14 08:32:59;;;;;;;27.83;12.40;;;;;;;;;;4997347;28;20241;-78
2021/12/14 08:35:26;;;;;;;23.27;11.73;;;;;;;;;;4999307;28;20343;-77
2021/12/14 08:37:57;;;;;;;35.05;13.50;;;;;;;;;;4993936;28;20042;-78
2021/12/14 08:40:25;;;;;;;54.45;19.23;;;;;;;;;;4981556;28;20315;-78
2021/12/14 08:43:05;;;;;;;35.72;14.73;;;;;;;;;;4999744;28;20053;-78
2021/12/14 08:45:37;;;;;;;58.85;19.80;;;8.30;99.90;;;;;;4997040;28;20051;-78
2021/12/14 08:48:03;;;;;;;22.00;10.93;;;;;;;;;;4999481;28;20207;-79
2021/12/14 08:50:33;;;;;;;16.70;8.73;;;;;;;;;;4998343;28;20073;-78
2021/12/14 08:53:00;;;;;;;21.17;9.68;;;;;;;;;;4999827;28;20046;-79
2021/12/14 08:55:31;;;;;;;27.52;12.82;;;;;;;;;;5001364;28;20034;-78
2021/12/14 08:57:57;;;;;;;19.45;9.30;;;;;;;;;;4987133;28;20164;-79
2021/12/14 09:00:26;;;;;;;74.68;22.88;;;;;;;;;;4981205;28;20053;-79
2021/12/14 09:02:58;;;;;;;56.55;20.25;;;;;;;;;;4998698;28;20062;-78
2021/12/14 09:05:27;;;;;;;26.50;12.15;;;;;;;;;;4994355;28;20022;-81
2021/12/14 09:07:55;;;;;;;29.80;13.00;;;;;;;;;;4982295;28;20030;-81
2021/12/14 09:10:22;;;;;;;20.60;8.90;;;;;;;;;;4984497;28;20038;-81
2021/12/14 09:12:51;;;;;;;29.25;11.73;;;8.40;99.90;;;;;;4974189;28;20035;-81
2021/12/14 09:15:20;;;;;;;27.00;11.88;;;;;;;;;;4994387;28;20069;-81
2021/12/14 09:17:47;;;;;;;53.60;19.80;;;;;;;;;;4995368;28;20042;-79
2021/12/14 09:20:19;;;;;;;25.30;12.10;;;;;;;;;;5007387;28;20046;-82
2021/12/14 09:22:51;;;;;;;20.02;11.85;;;8.40;99.90;;;;;;4996902;28;20034;-81
2021/12/14 09:25:19;;;;;;;18.95;11.15;;;;;;;;;;4994541;28;20057;-81
2021/12/14 09:27:46;;;;;;;31.48;12.13;;;;;;;;;;4992706;28;20134;-82
2021/12/14 09:30:16;;;;;;;19.55;11.40;;;;;;;;;;4983076;28;20047;-82
2021/12/14 09:32:42;;;;;;;36.17;13.18;;;;;;;;;;5003358;28;20022;-81
2021/12/14 09:35:13;;;;;;;66.47;21.15;;;;;;;;;;5005021;28;20144;-82
2021/12/14 09:37:40;;;;;;;19.27;10.07;;;;;;;;;;4991822;28;20034;-82
2021/12/14 09:40:11;;;;;;;16.60;10.10;;;;;;;;;;5002759;28;20082;-81
2021/12/14 09:42:38;;;;;;;21.50;9.85;;;;;;;;;;4999524;28;20057;-82
2021/12/14 09:45:14;;;;;;;17.23;9.73;;;;;;;;;;4997417;28;20113;-82
2021/12/14 09:47:40;;;;;;;22.15;10.60;;;;;;;;;;4997480;28;20331;-81
2021/12/14 09:50:19;;;;;;;18.52;9.65;;;;;;;;;;4999514;28;20161;-82
2021/12/14 09:52:47;;;;;;;30.45;11.90;;;;;;;;;;5001468;28;20041;-79
2021/12/14 09:55:18;;;;;;;17.30;9.93;;;;;;;;;;4997649;28;21429;-79
2021/12/14 09:57:47;;;;;;;28.55;10.55;;;;;;;;;;4975632;28;20034;-79
2021/12/14 10:00:19;;;;;;;39.13;13.70;;;;;;;;;;4993383;28;20082;-81
2021/12/14 10:02:46;;;;;;;14.50;7.70;;;;;;;;;;5000323;28;20052;-82
2021/12/14 10:05:18;;;;;;;11.43;7.55;;;;;;;;;;5002170;28;20049;-82
2021/12/14 10:07:46;;;;;;;41.78;13.55;;;;;;;;;;4998025;28;20286;-80
2021/12/14 10:10:15;;;;;;;23.70;9.80;;;;;;;;;;4997106;28;20038;-79
2021/12/14 10:12:50;;;;;;;39.13;14.30;;;;;;;;;;4998629;28;20263;-79
2021/12/14 10:15:20;;;;;;;27.20;10.02;;;;;;;;;;4999446;28;20062;-81
2021/12/14 10:17:47;;;;;;;35.83;12.20;;;;;;;;;;4996346;28;20130;-82
2021/12/14 10:20:15;;;;;;;25.00;9.60;;;;;;;;;;4988411;28;20371;-82
2021/12/14 10:22:42;;;;;;;37.20;13.30;;;;;;;;;;4982528;28;20042;-81
2021/12/14 10:25:10;;;;;;;34.03;11.52;;;;;;;;;;4999312;28;20064;-80
2021/12/14 10:27:37;;;;;;;27.08;8.77;;;;;;;;;;4997660;28;20038;-82
2021/12/14 10:30:07;;;;;;;19.10;8.25;;;;;;;;;;4999246;28;20034;-80
2021/12/14 10:32:35;;;;;;;43.72;14.30;;;;;;;;;;4998186;28;20423;-80
2021/12/14 10:35:06;;;;;;;23.60;9.73;;;;;;;;;;4995835;28;20037;-80
2021/12/14 10:37:53;;;;;;;22.95;9.07;;;;;;;;;;4981878;28;20033;-81
2021/12/14 10:43:17;;;;;;;69.88;18.65;;;;;;;;;;4991294;28;20038;-80
2021/12/14 10:45:48;;;;;;;14.68;9.20;;;;;;;;;;4989256;28;20208;-79
2021/12/14 10:48:14;;;;;;;31.25;10.73;;;;;;;;;;4991355;28;20252;-80
2021/12/14 10:50:42;;;;;;;31.05;11.02;;;;;;;;;;4995499;28;20081;-79
2021/12/14 10:53:09;;;;;;;32.53;10.50;;;;;;;;;;4998372;28;20190;-78
2021/12/14 10:55:39;;;;;;;35.50;10.82;;;;;;;;;;4993180;28;20279;-78
2021/12/14 10:58:07;;;;;;;43.85;12.57;;;8.80;99.90;;;;;;5013743;28;20030;-79
2021/12/14 11:00:37;;;;;;;37.22;11.60;;;;;;;;;;4993405;28;20039;-79
2021/12/14 11:03:11;;;;;;;22.70;8.48;;;8.90;99.90;;;;;;4998612;28;20298;-81
2021/12/14 11:05:38;;;;;;;19.38;7.43;;;;;;;;;;5000414;28;20038;-81
2021/12/14 11:08:20;;;;;;;33.15;10.73;;;;;;;;;;4980717;28;20042;-81
2021/12/14 11:10:47;;;;;;;24.05;6.95;;;;;;;;;;4989969;28;20204;-79
2021/12/14 11:13:13;;;;;;;60.78;16.20;;;;;;;;;;4996441;28;20057;-79
2021/12/14 11:15:52;;;;;;;23.45;7.93;;;;;;;;;;4997709;28;20160;-79
2021/12/14 11:18:20;;;;;;;45.35;12.48;;;;;;;;;;4980048;28;20603;-79
2021/12/14 11:20:53;;;;;;;11.73;4.78;;;;;;;;;;4990958;28;20114;-79
2021/12/14 11:23:21;;;;;;;22.90;7.95;;;;;;;;;;4986122;28;20098;-79
2021/12/14 11:25:50;;;;;;;10.45;3.90;;;;;;;;;;4980079;28;20038;-79
2021/12/14 11:28:20;;;;;;;11.23;4.90;;;;;;;;;;4992331;28;20070;-79
2021/12/14 11:30:49;;;;;;;15.15;5.28;;;;;;;;;;4995445;28;20026;-78
2021/12/14 11:33:18;;;;;;;37.83;12.23;;;;;;;;;;4983456;28;20042;-79
2021/12/14 11:36:03;;;;;;;13.40;5.50;;;;;;;;;;4991107;28;20252;-79
2021/12/14 11:38:29;;;;;;;18.30;6.88;;;;;;;;;;4996526;28;20034;-79
2021/12/14 11:40:56;;;;;;;24.05;7.95;;;9.20;99.90;;;;;;4996792;28;20054;-78
2021/12/14 11:43:26;;;;;;;12.85;4.88;;;;;;;;;;4980202;28;20029;-77
2021/12/14 11:45:52;;;;;;;12.65;5.63;;;;;;;;;;4994726;28;20054;-78
2021/12/14 11:48:32;;;;;;;21.27;7.80;;;;;;;;;;4993699;28;20054;-78
2021/12/14 11:50:58;;;;;;;16.58;6.88;;;;;;;;;;5003647;28;20261;-78
2021/12/14 11:53:25;;;;;;;21.20;8.52;;;;;;;;;;4993833;28;20328;-78
2021/12/14 11:55:53;;;;;;;18.25;6.55;;;;;;;;;;4993965;28;20252;-78
2021/12/14 11:58:43;;;;;;;10.20;3.80;;;9.20;99.90;;;;;;4992174;28;20149;-78
2021/12/14 12:01:16;;;;;;;9.10;3.35;;;;;;;;;;4981559;28;20038;-77
2021/12/14 12:03:42;;;;;;;19.10;6.65;;;;;;;;;;4996763;28;20030;-78
2021/12/14 12:06:13;;;;;;;16.55;6.95;;;;;;;;;;4992760;28;20310;-78
2021/12/14 12:11:33;;;;;;;13.43;6.82;;;;;;;;;;4996828;28;20041;-77
2021/12/14 12:13:59;;;;;;;18.40;8.70;;;;;;;;;;4992959;28;20070;-78
2021/12/14 12:16:26;;;;;;;17.77;8.90;;;;;;;;;;4981741;28;20058;-78
2021/12/14 12:19:14;;;;;;;21.52;8.07;;;;;;;;;;4990763;28;20041;-78
2021/12/14 12:21:42;;;;;;;28.63;10.38;;;;;;;;;;5015784;28;20058;-77
2021/12/14 12:24:30;;;;;;;32.65;11.48;;;9.60;99.90;;;;;;4984508;28;20034;-77
2021/12/14 12:27:14;;;;;;;33.13;11.05;;;;;;;;;;4979623;28;20061;-78
2021/12/14 12:29:41;;;;;;;33.92;13.55;;;;;;;;;;5005175;28;20031;-77
2021/12/14 12:32:17;;;;;;;80.10;15.45;;;;;;;;;;4993747;28;20164;-79
2021/12/14 12:34:44;;;;;;;39.58;14.43;;;;;;;;;;4993215;28;20094;-79
2021/12/14 12:37:14;;;;;;;35.97;13.32;;;;;;;;;;4982974;28;20054;-79
2021/12/14 12:39:47;;;;;;;31.23;6.78;;;;;;;;;;4996280;28;20532;-79
2021/12/14 12:42:15;;;;;;;39.67;12.57;;;;;;;;;;4996770;28;20110;-79
2021/12/14 12:44:42;;;;;;;31.58;9.15;;;;;;;;;;5008593;28;20034;-78
2021/12/14 12:47:18;;;;;;;42.92;13.00;;;9.50;99.90;;;;;;4980507;28;20042;-78
2021/12/14 12:49:45;;;;;;;37.10;12.75;;;;;;;;;;4984020;28;20038;-79
2021/12/14 12:52:30;;;;;;;38.72;12.32;;;;;;;;;;4981811;28;20038;-79
2021/12/14 12:55:11;;;;;;;46.00;13.00;;;;;;;;;;4996469;28;20030;-79
2021/12/14 12:58:10;;;;;;;37.50;11.23;;;;;;;;;;4998126;28;20169;-79
2021/12/14 13:00:48;;;;;;;21.80;7.35;;;;;;;;;;4993431;28;20167;-78
2021/12/14 13:03:19;;;;;;;42.08;13.48;;;;;;;;;;4988010;28;20069;-78
2021/12/14 13:06:00;;;;;;;35.75;11.10;;;;;;;;;;5003353;28;20038;-78
2021/12/14 13:08:33;;;;;;;26.33;10.00;;;;;;;;;;4999099;28;20240;-78
2021/12/14 13:11:16;;;;;;;17.65;4.70;;;;;;;;;;4995958;28;20061;-78
2021/12/14 13:13:48;;;;;;;35.80;9.13;;;;;;;;;;4998545;28;20052;-77
2021/12/14 13:16:16;;;;;;;31.08;10.55;;;;;;;;;;5002853;28;20042;-79
2021/12/14 13:18:57;;;;;;;25.52;7.50;;;;;;;;;;4994134;28;20049;-79
2021/12/14 13:21:45;;;;;;;30.45;12.52;;;;;;;;;;4997241;28;20057;-79
2021/12/14 13:24:17;;;;;;;35.78;9.75;;;;;;;;;;4984386;28;20060;-78
2021/12/14 13:26:43;;;;;;;29.63;12.25;;;;;;;;;;4978378;28;20023;-78
2021/12/14 13:29:21;;;;;;;26.55;8.40;;;;;;;;;;4976007;28;20191;-79
2021/12/14 13:31:50;;;;;;;26.00;9.48;;;;;;;;;;4997926;28;20417;-79
2021/12/14 13:34:26;;;;;;;46.38;12.02;;;9.70;99.90;;;;;;4994770;28;20042;-79
2021/12/14 13:36:53;;;;;;;23.83;8.15;;;;;;;;;;4995330;28;20248;-78
2021/12/14 13:39:20;;;;;;;17.67;5.80;;;9.70;99.90;;;;;;5011841;28;20273;-78
2021/12/14 13:42:07;;;;;;;37.05;13.15;;;;;;;;;;4999361;28;20046;-78
2021/12/14 13:44:39;;;;;;;27.58;8.90;;;;;;;;;;4997361;28;20070;-79
2021/12/14 13:47:07;;;;;;;33.13;11.57;;;;;;;;;;4993278;28;20979;-78
2021/12/14 13:49:34;;;;;;;35.65;11.25;;;;;;;;;;4990165;28;20080;-78
2021/12/14 13:52:00;;;;;;;30.75;8.27;;;;;;;;;;4989620;28;20164;-78
2021/12/14 13:54:26;;;;;;;40.25;11.25;;;;;;;;;;4974942;28;20034;-79
2021/12/14 13:56:53;;;;;;;38.45;12.57;;;;;;;;;;4992861;28;20044;-79
2021/12/14 13:59:20;;;;;;;41.08;13.05;;;;;;;;;;4986366;28;20026;-78
2021/12/14 14:01:51;;;;;;;41.95;13.13;;;;;;;;;;4982912;28;20061;-79
2021/12/14 14:04:22;;;;;;;41.33;13.63;;;;;;;;;;4996866;28;20392;-79
2021/12/14 14:06:48;;;;;;;29.83;11.27;;;;;;;;;;4997712;28;20038;-79
2021/12/14 14:09:18;;;;;;;32.15;9.65;;;;;;;;;;4977459;28;20034;-79
2021/12/14 14:11:50;;;;;;;34.33;10.63;;;;;;;;;;4969693;28;20049;-79
2021/12/14 14:14:16;;;;;;;41.67;13.13;;;;;;;;;;4994287;28;20030;-79
2021/12/14 14:16:57;;;;;;;36.70;12.02;;;;;;;;;;4994555;28;20129;-79
2021/12/14 14:19:32;;;;;;;35.75;11.27;;;;;;;;;;4983388;28;20090;-79
2021/12/14 14:22:05;;;;;;;12.73;5.78;;;9.60;99.90;;;;;;4987330;28;20307;-79
2021/12/14 14:24:33;;;;;;;22.90;7.28;;;;;;;;;;4988045;28;20075;-79
2021/12/14 14:27:00;;;;;;;5.13;2.40;;;;;;;;;;4992108;28;20085;-78
2021/12/14 14:29:39;;;;;;;31.10;9.38;;;;;;;;;;4994879;28;20105;-79
2021/12/14 14:32:11;;;;;;;24.75;10.30;;;;;;;;;;4998008;28;20164;-79
2021/12/14 14:34:54;;;;;;;27.52;8.90;;;9.50;99.90;;;;;;4990290;28;20034;-79
2021/12/14 14:37:29;;;;;;;18.80;5.47;;;9.60;99.90;;;;;;4998626;28;20250;-79
2021/12/14 14:39:55;;;;;;;;;;;;;;;;;;4985551;28;20026;-79
2021/12/14 14:42:26;;;;;;;36.50;10.75;;;;;;;;;;4993525;28;20179;-79
2021/12/14 14:44:56;;;;;;;27.70;8.80;;;;;;;;;;4979168;28;20062;-79
2021/12/14 14:47:27;;;;;;;17.63;7.03;;;;;;;;;;5003104;28;20205;-79
2021/12/14 14:50:19;;;;;;;29.73;9.95;;;;;;;;;;5020563;28;20049;-79
2021/12/14 14:53:15;;;;;;;35.55;11.43;;;9.50;99.90;;;;;;4993761;28;20030;-79
2021/12/14 14:55:41;;;;;;;21.45;8.70;;;;;;;;;;4989493;28;20339;-79